Time;durP1;ratioP1;P1;durP2;ratioP2;P2;SDS_P1;SDS_P2;PMS_P1;PMS_P2;Temp;Humidity;BMP_temperature;BMP_pressure;BME280_temperature;BME280_humidity;BME280_pressure;Samples;Min_cycle;Max_cycle;Signal;HPM_P1;HPM_P2
2022/07/05 00:01:17;;;;;;;1.65;1.08;;;;;;;;;;6212845;23;20028;-64
2022/07/05 00:03:44;;;;;;;2.22;1.20;;;;;;;;;;6211746;23;20020;-64
2022/07/05 00:06:12;;;;;;;2.78;1.17;;;;;;;;;;6235553;23;20103;-64
2022/07/05 00:08:38;;;;;;;;;;;;;;;;;;6213447;23;20020;-64
2022/07/05 00:11:06;;;;;;;2.80;1.20;;;;;;;;;;6209708;23;19926;-64
2022/07/05 00:13:33;;;;;;;1.98;1.02;;;;;;;;;;6213137;23;20017;-64
2022/07/05 00:16:03;;;;;;;2.47;1.10;;;;;;;;;;6209148;23;20024;-64
2022/07/05 00:18:29;;;;;;;2.20;1.33;;;;;;;;;;6213013;23;20027;-65
2022/07/05 00:20:56;;;;;;;3.63;1.17;;;;;;;;;;6234443;23;20020;-65
2022/07/05 00:23:23;;;;;;;2.83;1.30;;;;;;;;;;6212523;23;20016;-65
2022/07/05 00:25:52;;;;;;;2.63;1.20;;;;;;;;;;6210331;23;20028;-65
2022/07/05 00:28:20;;;;;;;2.42;1.05;;;;;;;;;;6213107;23;20016;-64
2022/07/05 00:30:47;;;;;;;2.00;1.20;;;;;;;;;;6212523;23;20077;-65
2022/07/05 00:33:13;;;;;;;1.75;1.20;;;;;;;;;;6209052;23;20016;-64
2022/07/05 00:35:40;;;;;;;2.65;1.27;;;;;;;;;;6237576;23;20016;-64
2022/07/05 00:38:07;;;;;;;4.25;1.23;;;;;;;;;;6209131;23;20020;-65
2022/07/05 00:40:33;;;;;;;3.08;1.45;;;;;;;;;;6212465;23;20024;-65
2022/07/05 00:43:00;;;;;;;1.67;1.08;;;;;;;;;;6233499;23;20066;-65
2022/07/05 00:45:28;;;;;;;4.63;1.17;;;;;;;;;;6212389;23;20028;-65
2022/07/05 00:47:54;;;;;;;2.42;1.10;;;;;;;;;;6209548;23;20024;-64
2022/07/05 00:50:21;;;;;;;2.15;1.00;;;;;;;;;;6239717;23;20119;-64
2022/07/05 00:52:47;;;;;;;3.70;1.05;;;;;;;;;;6235866;23;20024;-65
2022/07/05 00:55:14;;;;;;;2.85;1.35;;;;;;;;;;6238542;22;20093;-64
2022/07/05 00:57:41;;;;;;;2.60;1.10;;;;;;;;;;6210979;23;20020;-65
2022/07/05 01:00:08;;;;;;;5.97;1.30;;;;;;;;;;6214181;23;20016;-64
2022/07/05 01:02:36;;;;;;;1.98;1.15;;;;;;;;;;6235953;23;20074;-64
2022/07/05 01:05:06;;;;;;;2.08;1.23;;;;;;;;;;6213302;23;20016;-64
2022/07/05 01:07:33;;;;;;;2.30;1.25;;;;;;;;;;6235603;23;20013;-64
2022/07/05 01:09:59;;;;;;;2.30;1.10;;;;;;;;;;6239121;23;20024;-64
2022/07/05 01:12:26;;;;;;;2.85;1.20;;;;;;;;;;6213710;23;20031;-65
2022/07/05 01:14:53;;;;;;;2.45;1.08;;;;;;;;;;6236164;23;20016;-64
2022/07/05 01:17:20;;;;;;;2.70;1.08;;;;;;;;;;6239141;23;20030;-65
2022/07/05 01:19:49;;;;;;;3.58;1.17;;;;;;;;;;6210733;23;20028;-64
2022/07/05 01:22:18;;;;;;;2.05;1.05;;;;;;;;;;6214243;23;20016;-64
2022/07/05 01:24:47;;;;;;;3.17;1.10;;;;;;;;;;6210311;23;20024;-64
2022/07/05 01:27:14;;;;;;;4.28;1.35;;;;;;;;;;6239207;23;20020;-64
2022/07/05 01:29:41;;;;;;;2.28;1.30;;;;;;;;;;6210892;23;20028;-64
2022/07/05 01:32:08;;;;;;;3.30;1.10;;;;;;;;;;6212758;23;20071;-64
2022/07/05 01:34:37;;;;;;;1.58;0.93;;;;;;;;;;6235564;23;20286;-64
2022/07/05 01:37:04;;;;;;;2.33;1.15;;;;;;;;;;6213989;23;20016;-64
2022/07/05 01:39:31;;;;;;;1.90;1.30;;;;;;;;;;6210052;23;20051;-65
2022/07/05 01:41:59;;;;;;;3.38;1.08;;;;;;;;;;6214370;23;20118;-64
2022/07/05 01:44:25;;;;;;;1.85;1.08;;;;;;;;;;6210608;23;20024;-64
2022/07/05 01:46:54;;;;;;;3.33;1.10;;;;;;;;;;6213669;23;20031;-64
2022/07/05 01:49:23;;;;;;;2.95;1.00;;;;;;;;;;6209438;23;20074;-64
2022/07/05 01:51:51;;;;;;;3.08;1.13;;;;;;;;;;6238919;23;20032;-64
2022/07/05 01:54:19;;;;;;;5.00;1.30;;;;;;;;;;6234940;22;20035;-64
2022/07/05 01:56:46;;;;;;;1.80;1.02;;;;;;;;;;6213763;23;20024;-65
2022/07/05 01:59:14;;;;;;;2.92;1.23;;;;;;;;;;6212994;23;20039;-64
2022/07/05 02:01:40;;;;;;;1.98;1.08;;;;;;;;;;6210182;23;20020;-64
2022/07/05 02:04:09;;;;;;;2.60;1.27;;;;;;;;;;6207576;23;20026;-65
2022/07/05 02:06:36;;;;;;;1.30;0.90;;;;;;;;;;6202007;23;20047;-64
2022/07/05 02:09:04;;;;;;;2.00;1.10;;;;;;;;;;6238050;23;20031;-64
2022/07/05 02:11:31;;;;;;;2.43;1.10;;;;;;;;;;6210597;23;20020;-64
2022/07/05 02:13:58;;;;;;;2.28;1.20;;;;;;;;;;6239080;23;20382;-65
2022/07/05 02:16:27;;;;;;;1.95;0.98;;;;;;;;;;6235693;23;20020;-65
2022/07/05 02:18:53;;;;;;;3.35;1.10;;;;;;;;;;6239140;23;20024;-64
2022/07/05 02:21:20;;;;;;;3.70;1.33;;;;;;;;;;6211474;23;20032;-64
2022/07/05 02:23:47;;;;;;;1.80;0.95;;;;;;;;;;6212925;23;20024;-65
2022/07/05 02:26:13;;;;;;;1.65;1.23;;;;;;;;;;6238459;23;20077;-64
2022/07/05 02:28:40;;;;;;;2.20;1.02;;;;;;;;;;6211742;23;20028;-64
2022/07/05 02:31:07;;;;;;;1.73;1.02;;;;;;;;;;6213487;23;20027;-64
2022/07/05 02:33:35;;;;;;;3.65;1.33;;;;;;;;;;6210139;23;20023;-64
2022/07/05 02:36:06;;;;;;;2.13;1.10;;;;;;;;;;6212332;23;20098;-65
2022/07/05 02:38:32;;;;;;;3.80;1.10;;;;;;;;;;6209531;23;20087;-64
2022/07/05 02:40:59;;;;;;;3.53;1.58;;;;;;;;;;6213116;23;20075;-65
2022/07/05 02:43:25;;;;;;;3.03;1.08;;;;;;;;;;6237519;23;20020;-64
2022/07/05 02:45:52;;;;;;;1.33;0.90;;;;;;;;;;6238577;23;20020;-65
2022/07/05 02:48:18;;;;;;;1.55;1.10;;;;;;;;;;6213792;23;20047;-64
2022/07/05 02:50:47;;;;;;;2.90;1.08;;;;;;;;;;6210004;23;20022;-64
2022/07/05 02:53:14;;;;;;;1.77;1.05;;;;;;;;;;6238649;22;20016;-64
2022/07/05 02:55:40;;;;;;;2.05;1.10;;;;;;;;;;6235404;23;20024;-64
2022/07/05 02:58:07;;;;;;;2.60;1.23;;;;;;;;;;6213568;23;20016;-64
2022/07/05 03:00:33;;;;;;;2.25;1.00;;;;;;;;;;6235680;23;20024;-64
2022/07/05 03:03:00;;;;;;;3.03;1.20;;;;;;;;;;6212524;23;20024;-65
2022/07/05 03:05:27;;;;;;;2.55;1.25;;;;;;;;;;6212850;23;20012;-65
2022/07/05 03:07:55;;;;;;;3.28;1.17;;;;;;;;;;6210470;23;20016;-65
2022/07/05 03:10:21;;;;;;;2.10;1.20;;;;;;;;;;6238455;23;20081;-65
2022/07/05 03:12:48;;;;;;;3.97;1.30;;;;;;;;;;6209648;23;20031;-64
2022/07/05 03:15:14;;;;;;;4.53;1.30;;;;;;;;;;6213477;23;20079;-65
2022/07/05 03:17:42;;;;;;;2.25;1.20;;;;;;;;;;6210287;23;20075;-64
2022/07/05 03:20:09;;;;;;;3.05;1.30;;;;;;;;;;6212495;23;20035;-64
2022/07/05 03:22:36;;;;;;;1.88;1.10;;;;;;;;;;6213322;23;20023;-65
2022/07/05 03:25:05;;;;;;;2.33;1.20;;;;;;;;;;6209332;23;20020;-64
2022/07/05 03:27:32;;;;;;;;;;;;;;;;;;6212909;23;20020;-64
2022/07/05 03:29:59;;;;;;;1.60;1.10;;;;;;;;;;6209537;23;19925;-64
2022/07/05 03:32:25;;;;;;;3.08;1.08;;;;;;;;;;6212833;23;20024;-64
2022/07/05 03:34:52;;;;;;;3.33;1.25;;;;;;;;;;6209803;23;20024;-64
2022/07/05 03:37:22;;;;;;;1.73;1.08;;;;;;;;;;6215376;23;20062;-65
2022/07/05 03:39:48;;;;;;;3.15;1.05;;;;;;;;;;6234745;23;20122;-64
2022/07/05 03:42:17;;;;;;;2.30;1.20;;;;;;;;;;6212283;23;20027;-64
2022/07/05 03:44:43;;;;;;;2.22;1.30;;;;;;;;;;6208238;23;20016;-64
2022/07/05 03:47:10;;;;;;;2.22;1.13;;;;;;;;;;6212533;23;20016;-64
2022/07/05 03:49:36;;;;;;;2.53;1.10;;;;;;;;;;6234628;23;20107;-64
2022/07/05 03:52:03;;;;;;;2.28;1.20;;;;;;;;;;6212554;23;20020;-65
2022/07/05 03:54:30;;;;;;;2.00;1.20;;;;;;;;;;6233346;22;20107;-64
2022/07/05 03:56:56;;;;;;;3.42;1.48;;;;;;;;;;6212664;23;20027;-64
2022/07/05 03:59:24;;;;;;;5.22;1.17;;;;;;;;;;6233803;23;20016;-64
2022/07/05 04:01:51;;;;;;;2.13;1.23;;;;;;;;;;6212864;23;20020;-64
2022/07/05 04:04:17;;;;;;;4.22;1.45;;;;;;;;;;6210900;23;20044;-64
2022/07/05 04:06:46;;;;;;;2.33;1.20;;;;;;;;;;6211062;23;20089;-64
2022/07/05 04:09:13;;;;;;;2.20;1.13;;;;;;;;;;6209819;23;20016;-64
2022/07/05 04:11:39;;;;;;;2.25;1.20;;;;;;;;;;6209198;23;20043;-64
2022/07/05 04:14:08;;;;;;;2.47;1.15;;;;;;;;;;6211839;23;20020;-64
2022/07/05 04:16:42;;;;;;;2.67;1.40;;;;;;;;;;6209051;23;20016;-64
2022/07/05 04:19:09;;;;;;;2.47;1.13;;;;;;;;;;6212478;23;20030;-65
2022/07/05 04:21:36;;;;;;;2.15;1.02;;;;;;;;;;6209315;23;20074;-64
2022/07/05 04:24:02;;;;;;;2.33;1.30;;;;;;;;;;6212856;23;20020;-65
2022/07/05 04:26:29;;;;;;;2.67;1.30;;;;;;;;;;6210541;23;20033;-64
2022/07/05 04:28:56;;;;;;;2.25;1.08;;;;;;;;;;6214705;23;20016;-64
2022/07/05 04:31:22;;;;;;;2.00;1.23;;;;;;;;;;6210665;23;20043;-65
2022/07/05 04:33:50;;;;;;;2.85;1.13;;;;;;;;;;6213813;23;20031;-64
2022/07/05 04:36:16;;;;;;;1.85;1.17;;;;;;;;;;6235196;23;20026;-64
2022/07/05 04:38:43;;;;;;;2.75;1.35;;;;;;;;;;6238689;23;20031;-64
2022/07/05 04:41:10;;;;;;;1.83;1.30;;;;;;;;;;6207867;23;20126;-64
2022/07/05 04:43:36;;;;;;;1.88;1.20;;;;;;;;;;6213745;23;20032;-64
2022/07/05 04:46:03;;;;;;;2.53;1.23;;;;;;;;;;6210628;23;20020;-64
2022/07/05 04:48:30;;;;;;;2.33;1.10;;;;;;;;;;6213811;23;20016;-65
2022/07/05 04:50:57;;;;;;;4.60;1.30;;;;;;;;;;6213612;23;20024;-65
2022/07/05 04:53:24;;;;;;;4.32;1.30;;;;;;;;;;6209895;22;20020;-64
2022/07/05 04:55:51;;;;;;;2.30;1.40;;;;;;;;;;6213587;23;20107;-64
2022/07/05 04:58:17;;;;;;;4.53;1.38;;;;;;;;;;6207691;23;20023;-64
2022/07/05 05:00:44;;;;;;;5.68;2.67;;;;;;;;;;6212644;23;20108;-64
2022/07/05 05:03:38;;;;;;;2.97;1.48;;;;;;;;;;6209769;23;20044;-64
2022/07/05 05:06:26;;;;;;;4.60;1.95;;;;;;;;;;6241469;23;20115;-64
2022/07/05 05:08:52;;;;;;;5.30;2.25;;;;;;;;;;6214739;23;20099;-64
2022/07/05 05:11:19;;;;;;;3.00;1.50;;;;;;;;;;6214404;23;20024;-64
2022/07/05 05:13:46;;;;;;;1.98;1.23;;;;;;;;;;6214619;23;20026;-64
2022/07/05 05:16:13;;;;;;;4.03;1.40;;;;;;;;;;6214673;23;20024;-64
2022/07/05 05:18:39;;;;;;;2.00;1.20;;;;;;;;;;6213745;23;20020;-64
2022/07/05 05:21:06;;;;;;;3.47;1.42;;;;;;;;;;6213398;23;20024;-64
2022/07/05 05:23:34;;;;;;;8.80;2.83;;;;;;;;;;6214249;23;20019;-64
2022/07/05 05:26:01;;;;;;;7.82;3.95;;;;;;;;;;6214490;23;20028;-64
2022/07/05 05:28:27;;;;;;;3.83;2.08;;;;;;;;;;6214112;23;20332;-64
2022/07/05 05:30:54;;;;;;;7.20;2.72;;;;;;;;;;6213754;23;20176;-64
2022/07/05 05:33:20;;;;;;;3.70;1.88;;;;;;;;;;6213412;23;20043;-65
2022/07/05 05:35:49;;;;;;;5.40;2.90;;;;;;;;;;6213267;23;20069;-64
2022/07/05 05:38:17;;;;;;;13.88;5.93;;;;;;;;;;6214490;23;20012;-64
2022/07/05 05:40:45;;;;;;;6.70;3.73;;;;;;;;;;6213197;23;20079;-64
2022/07/05 05:43:12;;;;;;;13.25;5.47;;;;;;;;;;6212745;23;20267;-64
2022/07/05 05:45:38;;;;;;;4.63;2.80;;;;;;;;;;6212370;23;20016;-64
2022/07/05 05:48:05;;;;;;;12.23;4.90;;;;;;;;;;6213595;23;20020;-64
2022/07/05 05:50:34;;;;;;;12.13;6.10;;;;;;;;;;6214293;23;20024;-64
2022/07/05 05:53:00;;;;;;;;;;;;;;;;;;6214175;23;20133;-64
2022/07/05 05:55:27;;;;;;;10.52;5.00;;;;;;;;;;6210135;23;19926;-64
2022/07/05 05:57:57;;;;;;;10.45;4.75;;;;;;;;;;6238420;23;20024;-64
2022/07/05 06:00:24;;;;;;;5.60;2.60;;;;;;;;;;6236886;23;20028;-64
2022/07/05 06:02:52;;;;;;;4.80;1.73;;;;;;;;;;6211939;23;20079;-64
2022/07/05 06:05:18;;;;;;;5.80;2.50;;;;;;;;;;6238390;23;20020;-64
2022/07/05 06:07:47;;;;;;;12.05;4.35;;;;;;;;;;6238139;23;20404;-64
2022/07/05 06:10:13;;;;;;;;;;;;;;;;;;6213577;23;20074;-64
2022/07/05 06:12:47;;;;;;;13.13;6.25;;;;;;;;;;6213392;23;19975;-64
2022/07/05 06:15:15;;;;;;;6.15;3.38;;;;;;;;;;6213294;23;20024;-64
2022/07/05 06:17:43;;;;;;;14.88;8.15;;;;;;;;;;6238814;23;20016;-64
2022/07/05 06:20:10;;;;;;;15.43;6.97;;;;;;;;;;6212873;23;20020;-64
2022/07/05 06:22:37;;;;;;;12.05;4.60;;;;;;;;;;6213762;23;20015;-65
2022/07/05 06:25:04;;;;;;;17.55;6.82;;;;;;;;;;6213593;23;20016;-64
2022/07/05 06:27:31;;;;;;;13.93;8.20;;;;;;;;;;6237890;23;20024;-64
2022/07/05 06:29:57;;;;;;;7.00;3.60;;;;;;;;;;6212439;23;20020;-64
2022/07/05 06:32:25;;;;;;;6.05;3.38;;;;;;;;;;6238395;23;20024;-64
2022/07/05 06:34:53;;;;;;;12.60;6.20;;;;;;;;;;6212765;23;20165;-64
2022/07/05 06:37:20;;;;;;;15.15;7.07;;;;;;;;;;6212908;23;20047;-64
2022/07/05 06:39:46;;;;;;;9.38;3.45;;;;;;;;;;6212922;23;20024;-64
2022/07/05 06:42:14;;;;;;;12.57;5.35;;;;;;;;;;6212321;23;20026;-64
2022/07/05 06:44:41;;;;;;;10.10;3.95;;;;;;;;;;6237913;23;20023;-64
2022/07/05 06:47:08;;;;;;;5.75;3.22;;;;;;;;;;6212269;23;20026;-64
2022/07/05 06:49:36;;;;;;;10.80;5.53;;;;;;;;;;6212884;23;20070;-64
2022/07/05 06:52:03;;;;;;;14.55;5.93;;;;;;;;;;6214928;23;20028;-64
2022/07/05 06:54:29;;;;;;;12.63;7.22;;;;;;;;;;6238275;22;20024;-64
2022/07/05 06:56:57;;;;;;;7.53;3.90;;;;;;;;;;6212978;23;20031;-65
2022/07/05 06:59:23;;;;;;;10.67;5.67;;;;;;;;;;6213619;23;20028;-64
2022/07/05 07:01:50;;;;;;;12.57;6.53;;;;;;;;;;6212082;23;20275;-65
2022/07/05 07:04:37;;;;;;;15.55;6.22;;;;;;;;;;6225530;23;20050;-64
2022/07/05 07:10:10;;;;;;;9.65;4.55;;;;;;;;;;6238589;23;20024;-64
2022/07/05 07:12:36;;;;;;;13.00;6.70;;;;;;;;;;6238295;23;20023;-64
2022/07/05 07:15:03;;;;;;;12.27;7.35;;;;;;;;;;6238350;23;20019;-64
2022/07/05 07:17:31;;;;;;;11.52;5.53;;;;;;;;;;6238071;23;20020;-64
2022/07/05 07:19:57;;;;;;;11.77;5.13;;;;;;;;;;6237775;23;20027;-64
2022/07/05 07:22:25;;;;;;;14.93;7.65;;;;;;;;;;6238206;23;20024;-64
2022/07/05 07:24:52;;;;;;;9.07;4.32;;;;;;;;;;6238374;23;20098;-64
2022/07/05 07:27:18;;;;;;;8.93;4.45;;;;;;;;;;6238114;23;20024;-64
2022/07/05 07:29:45;;;;;;;8.80;4.05;;;;;;;;;;6239236;23;20085;-64
2022/07/05 07:32:13;;;;;;;10.95;4.05;;;;;;;;;;6238527;23;20076;-64
2022/07/05 07:34:40;;;;;;;10.30;4.65;;;;;;;;;;6261507;22;20020;-64
2022/07/05 07:37:08;;;;;;;6.65;3.30;;;;;;;;;;6236728;22;20043;-64
2022/07/05 07:39:35;;;;;;;;;;;;;;;;;;6237321;22;20028;-64
2022/07/05 07:42:03;;;;;;;7.55;2.75;;;;;;;;;;6237015;22;19925;-64
2022/07/05 07:44:29;;;;;;;10.32;4.72;;;;;;;;;;6236081;22;20051;-64
2022/07/05 07:46:56;;;;;;;6.40;2.92;;;;;;;;;;6237814;22;20030;-64
2022/07/05 07:49:22;;;;;;;14.38;4.47;;;;;;;;;;6236770;22;20070;-64
2022/07/05 07:51:54;;;;;;;11.57;4.70;;;;;;;;;;6263981;22;20027;-64
2022/07/05 07:54:21;;;;;;;7.33;3.27;;;;;;;;;;6239779;22;20226;-63
2022/07/05 07:56:47;;;;;;;7.53;4.13;;;;;;;;;;6212126;23;20099;-64
2022/07/05 07:59:18;;;;;;;7.68;3.17;;;;;;;;;;6237874;23;20023;-63
2022/07/05 09:01:16;;;;;;;8.50;4.50;;;;;;;;;;6268262;22;20020;-64
2022/07/05 09:07:07;;;;;;;8.98;3.22;;;;;;;;;;6201034;23;20120;-64
2022/07/05 09:09:33;;;;;;;;;;;;;;;;;;6162560;23;20080;-63
2022/07/05 09:12:01;;;;;;;5.18;2.05;;;;;;;;;;6180545;23;19920;-63
2022/07/05 09:14:28;;;;;;;9.55;3.60;;;;;;;;;;6208851;23;20052;-63
2022/07/05 09:20:31;;;;;;;5.13;2.40;;;;;;;;;;6181309;23;20020;-63
2022/07/05 09:22:59;;;;;;;12.90;3.70;;;;;;;;;;6183482;23;20096;-64
2022/07/05 09:25:28;;;;;;;5.55;2.60;;;;;;;;;;6178882;23;20103;-63
2022/07/05 09:27:55;;;;;;;5.22;2.17;;;;;;;;;;6153608;23;20021;-64
2022/07/05 09:30:33;;;;;;;6.32;2.45;;;;;;;;;;6207657;23;20051;-63
2022/07/05 09:33:09;;;;;;;4.33;1.90;;;;;;;;;;6184179;23;20043;-63
2022/07/05 09:35:36;;;;;;;8.50;4.00;;;;;;;;;;6151042;23;20260;-63
2022/07/05 09:38:04;;;;;;;7.85;3.65;;;;;;;;;;6204101;23;20079;-64
2022/07/05 09:40:31;;;;;;;5.70;2.90;;;;;;;;;;6190582;23;20021;-64
2022/07/05 09:43:14;;;;;;;8.55;3.97;;;;;;;;;;6203573;23;20107;-63
2022/07/05 09:45:40;;;;;;;9.50;3.97;;;;;;;;;;6200075;23;20036;-63
2022/07/05 09:48:09;;;;;;;9.00;3.78;;;;;;;;;;6203437;23;20035;-63
2022/07/05 09:50:35;;;;;;;6.70;3.08;;;;;;;;;;6203312;23;20033;-64
2022/07/05 09:53:04;;;;;;;7.28;3.35;;;;;;;;;;6203401;23;20025;-63
2022/07/05 09:55:30;;;;;;;;;;;;;;;;;;6204582;23;20025;-63
2022/07/05 09:57:57;;;;;;;10.70;5.35;;;;;;;;;;6204376;23;19970;-64
2022/07/05 10:00:24;;;;;;;17.15;5.72;;;;;;;;;;6203448;23;20047;-63
2022/07/05 10:02:51;;;;;;;7.38;3.22;;;;;;;;;;6202650;23;20025;-64
2022/07/05 10:05:19;;;;;;;8.23;3.57;;;;;;;;;;6204066;23;20013;-64
2022/07/05 10:07:48;;;;;;;7.10;2.63;;;;;;;;;;6204010;23;20049;-64
2022/07/05 10:10:17;;;;;;;6.32;2.28;;;;;;;;;;6203534;23;20021;-64
2022/07/05 10:12:44;;;;;;;4.43;2.13;;;;;;;;;;6203508;23;20029;-63
2022/07/05 10:15:12;;;;;;;6.47;2.05;;;;;;;;;;6203116;23;20021;-64
2022/07/05 10:17:41;;;;;;;6.15;2.75;;;;;;;;;;6203270;23;20025;-63
2022/07/05 10:20:12;;;;;;;5.47;2.35;;;;;;;;;;6203564;23;20025;-64
2022/07/05 10:22:39;;;;;;;4.18;2.35;;;;;;;;;;6202653;23;20096;-63
2022/07/05 10:25:06;;;;;;;5.22;2.40;;;;;;;;;;6202881;23;20021;-63
2022/07/05 10:27:36;;;;;;;8.32;3.08;;;;;;;;;;6203135;23;20021;-63
2022/07/05 10:30:03;;;;;;;4.57;2.10;;;;;;;;;;6203559;23;20039;-64
2022/07/05 10:32:30;;;;;;;6.30;2.15;;;;;;;;;;6160340;23;20053;-64
2022/07/05 10:34:58;;;;;;;4.47;2.00;;;;;;;;;;6173855;23;20021;-63
2022/07/05 10:37:27;;;;;;;4.38;1.85;;;;;;;;;;6153367;23;20017;-64
2022/07/05 10:39:54;;;;;;;4.25;1.88;;;;;;;;;;6153185;23;20025;-64
2022/07/05 10:42:21;;;;;;;4.13;1.88;;;;;;;;;;6153287;23;20084;-64
2022/07/05 10:44:49;;;;;;;5.07;1.73;;;;;;;;;;6153152;23;20024;-63
2022/07/05 10:47:18;;;;;;;5.97;2.08;;;;;;;;;;6153286;23;20060;-63
2022/07/05 10:49:59;;;;;;;3.58;1.40;;;;;;;;;;6153189;23;20084;-65
2022/07/05 10:52:26;;;;;;;3.67;1.40;;;;;;;;;;6152612;23;20025;-64
2022/07/05 10:55:17;;;;;;;4.03;1.30;;;;;;;;;;6153265;23;20032;-64
2022/07/05 10:57:44;;;;;;;3.58;1.30;;;;;;;;;;6161483;23;20020;-63
2022/07/05 11:00:13;;;;;;;2.30;1.30;;;;;;;;;;6154956;23;20017;-64
2022/07/05 11:02:40;;;;;;;4.20;1.13;;;;;;;;;;6178898;23;20063;-64
2022/07/05 11:05:07;;;;;;;3.05;1.10;;;;;;;;;;6146073;23;20021;-63
2022/07/05 11:07:52;;;;;;;4.38;1.30;;;;;;;;;;6147629;23;20078;-64
2022/07/05 11:10:20;;;;;;;2.40;1.20;;;;;;;;;;6146015;23;20021;-63
2022/07/05 11:12:46;;;;;;;7.25;1.15;;;;;;;;;;6149230;23;20022;-64
2022/07/05 11:15:14;;;;;;;4.32;1.30;;;;;;;;;;6147101;23;20025;-63
2022/07/05 11:17:42;;;;;;;1.42;1.00;;;;;;;;;;6147945;23;20056;-64
2022/07/05 11:20:13;;;;;;;3.97;0.85;;;;;;;;;;6148462;23;20088;-64
2022/07/05 11:22:42;;;;;;;2.40;1.00;;;;;;;;;;6147708;23;20033;-64
2022/07/05 11:25:10;;;;;;;5.68;1.00;;;;;;;;;;6147707;23;20055;-62
2022/07/05 11:27:37;;;;;;;;;;;;;;;;;;6147864;23;20030;-64
2022/07/05 11:30:04;;;;;;;3.10;0.90;;;;;;;;;;6148527;23;19921;-65
2022/07/05 11:32:39;;;;;;;1.75;0.90;;;;;;;;;;6147465;23;20029;-64
2022/07/05 11:35:13;;;;;;;1.95;0.80;;;;;;;;;;6150036;23;20084;-62
2022/07/05 11:37:57;;;;;;;1.33;0.75;;;;;;;;;;6148277;23;20021;-63
2022/07/05 11:40:29;;;;;;;2.90;1.05;;;;;;;;;;6147956;23;20112;-63
2022/07/05 11:42:55;;;;;;;2.80;0.80;;;;;;;;;;6172214;23;20021;-63
2022/07/05 11:45:22;;;;;;;2.10;0.90;;;;;;;;;;6147351;23;20048;-63
2022/07/05 11:47:51;;;;;;;2.70;1.27;;;;;;;;;;6172665;23;20018;-63
2022/07/05 11:50:18;;;;;;;5.55;1.05;;;;;;;;;;6171261;23;20027;-63
2022/07/05 11:52:45;;;;;;;1.90;0.80;;;;;;;;;;6123639;23;20055;-63
2022/07/05 11:55:12;;;;;;;2.30;0.90;;;;;;;;;;6147361;23;20026;-63
2022/07/05 11:57:48;;;;;;;2.78;0.85;;;;;;;;;;6147592;23;20029;-63
2022/07/05 12:00:26;;;;;;;1.27;0.80;;;;;;;;;;6172822;23;20028;-63
2022/07/05 12:02:54;;;;;;;2.43;0.90;;;;;;;;;;6204155;22;20029;-63
2022/07/05 12:05:31;;;;;;;5.30;0.80;;;;;;;;;;6176106;23;20259;-63
2022/07/05 12:07:58;;;;;;;2.72;0.90;;;;;;;;;;6206390;23;20024;-62
2022/07/05 12:13:09;;;;;;;3.22;0.90;;;;;;;;;;6207629;23;20047;-63
2022/07/05 12:15:37;;;;;;;5.15;0.90;;;;;;;;;;6206780;23;20059;-63
2022/07/05 12:18:06;;;;;;;3.53;0.95;;;;;;;;;;6207355;23;20025;-63
2022/07/05 12:20:33;;;;;;;3.92;1.13;;;;;;;;;;6232471;23;20017;-62
2022/07/05 12:23:00;;;;;;;3.20;0.80;;;;;;;;;;6232436;23;20020;-63
2022/07/05 12:25:27;;;;;;;3.15;1.00;;;;;;;;;;6207501;23;20055;-63
2022/07/05 12:27:58;;;;;;;4.75;1.10;;;;;;;;;;6208249;23;20036;-64
2022/07/05 12:30:25;;;;;;;3.85;1.02;;;;;;;;;;6207533;23;20036;-63
2022/07/05 12:32:55;;;;;;;2.53;0.95;;;;;;;;;;6232564;23;20028;-63
2022/07/05 12:35:30;;;;;;;2.97;0.80;;;;;;;;;;6207544;23;20032;-63
2022/07/05 12:37:57;;;;;;;2.13;0.98;;;;;;;;;;6207223;23;20016;-63
2022/07/05 12:40:24;;;;;;;2.72;0.77;;;;;;;;;;6206963;23;20043;-63
2022/07/05 12:43:01;;;;;;;3.50;1.00;;;;;;;;;;6207422;23;20021;-63
2022/07/05 12:45:28;;;;;;;5.22;1.05;;;;;;;;;;6208310;23;20051;-63
2022/07/05 12:47:55;;;;;;;1.55;0.60;;;;;;;;;;6234609;23;20277;-63
2022/07/05 12:50:21;;;;;;;2.00;1.00;;;;;;;;;;6234700;23;20071;-62
2022/07/05 12:58:31;;;;;;;3.28;0.85;;;;;;;;;;6207925;23;20076;-62
2022/07/05 13:03:22;;;;;;;3.78;1.05;;;;;;;;;;6173232;23;20024;-63
2022/07/05 13:06:00;;;;;;;0.88;0.68;;;;;;;;;;6172073;23;20091;-63
2022/07/05 13:08:31;;;;;;;2.50;0.90;;;;;;;;;;6174184;23;20025;-63
2022/07/05 13:10:58;;;;;;;2.95;0.90;;;;;;;;;;6154541;23;20021;-63
2022/07/05 13:13:25;;;;;;;3.35;0.90;;;;;;;;;;6156633;23;20028;-64
2022/07/05 13:15:51;;;;;;;2.30;0.90;;;;;;;;;;6177341;23;20043;-62
2022/07/05 13:18:24;;;;;;;4.65;1.38;;;;;;;;;;6151098;23;20029;-62
2022/07/05 13:20:51;;;;;;;2.80;1.00;;;;;;;;;;6153752;23;20024;-63
2022/07/05 13:23:17;;;;;;;2.67;0.70;;;;;;;;;;6150669;23;20077;-63
2022/07/05 13:25:46;;;;;;;3.33;1.05;;;;;;;;;;6153907;23;20028;-63
2022/07/05 13:28:12;;;;;;;3.45;1.10;;;;;;;;;;6151897;23;20029;-63
2022/07/05 13:30:39;;;;;;;3.88;1.00;;;;;;;;;;6176777;23;20040;-63
2022/07/05 13:33:05;;;;;;;2.67;0.80;;;;;;;;;;6153863;23;20087;-63
2022/07/05 13:35:32;;;;;;;6.13;0.77;;;;;;;;;;6185321;23;20016;-64
2022/07/05 13:37:58;;;;;;;3.40;0.90;;;;;;;;;;6208190;23;20296;-64
2022/07/05 13:40:25;;;;;;;4.32;0.90;;;;;;;;;;6180484;23;20016;-64
2022/07/05 13:42:54;;;;;;;5.85;0.90;;;;;;;;;;6208290;23;20036;-65
2022/07/05 13:45:21;;;;;;;2.95;1.05;;;;;;;;;;6205481;23;20020;-63
2022/07/05 13:47:48;;;;;;;8.02;1.00;;;;;;;;;;6182118;23;20099;-64
2022/07/05 13:50:32;;;;;;;1.48;0.80;;;;;;;;;;6208902;23;20032;-63
2022/07/05 13:52:59;;;;;;;2.67;0.63;;;;;;;;;;6205417;23;20028;-64
2022/07/05 13:55:26;;;;;;;2.78;0.85;;;;;;;;;;6207483;23;20043;-65
2022/07/05 13:57:54;;;;;;;2.97;0.82;;;;;;;;;;6180101;23;20024;-63
2022/07/05 14:00:20;;;;;;;4.03;0.98;;;;;;;;;;6184712;23;20077;-65
2022/07/05 14:02:48;;;;;;;4.38;0.80;;;;;;;;;;6201763;23;20025;-64
2022/07/05 14:05:16;;;;;;;2.33;0.73;;;;;;;;;;6177686;23;20028;-64
2022/07/05 14:07:43;;;;;;;4.85;0.90;;;;;;;;;;6176309;23;20087;-63
2022/07/05 14:10:10;;;;;;;2.55;0.85;;;;;;;;;;6177486;23;20025;-65
2022/07/05 14:12:36;;;;;;;3.75;0.77;;;;;;;;;;6177476;23;20021;-63
2022/07/05 14:15:05;;;;;;;4.60;1.08;;;;;;;;;;6174963;23;20024;-65
2022/07/05 14:17:32;;;;;;;4.20;0.88;;;;;;;;;;6152491;23;20017;-64
2022/07/05 14:19:59;;;;;;;1.48;0.60;;;;;;;;;;6175739;23;20021;-63
2022/07/05 14:22:26;;;;;;;1.75;0.80;;;;;;;;;;6178025;23;20047;-65
2022/07/05 14:24:52;;;;;;;1.67;0.75;;;;;;;;;;6174440;23;20021;-64
2022/07/05 14:27:19;;;;;;;1.13;0.80;;;;;;;;;;6176872;23;20504;-63
2022/07/05 14:29:45;;;;;;;1.55;0.77;;;;;;;;;;6174142;23;20025;-64
2022/07/05 14:32:13;;;;;;;3.33;0.85;;;;;;;;;;6177630;23;20029;-64
2022/07/05 14:34:40;;;;;;;1.80;0.80;;;;;;;;;;6175441;23;20028;-64
2022/07/05 14:37:07;;;;;;;1.00;0.75;;;;;;;;;;6176756;23;20013;-63
2022/07/05 14:39:34;;;;;;;2.47;0.63;;;;;;;;;;6177774;23;20100;-64
2022/07/05 14:42:02;;;;;;;1.00;0.70;;;;;;;;;;6149294;23;20048;-65
2022/07/05 14:44:28;;;;;;;;;;;;;;;;;;6177678;23;20075;-63
2022/07/05 14:46:55;;;;;;;3.35;0.80;;;;;;;;;;6174043;23;19947;-65
2022/07/05 14:49:23;;;;;;;2.25;0.70;;;;;;;;;;6177987;23;20017;-64
2022/07/05 14:51:52;;;;;;;2.33;0.98;;;;;;;;;;6173036;23;20029;-64
2022/07/05 14:54:18;;;;;;;1.40;0.73;;;;;;;;;;6178055;23;20024;-64
2022/07/05 14:56:45;;;;;;;1.75;0.70;;;;;;;;;;6176809;23;20021;-65
2022/07/05 14:59:12;;;;;;;1.55;0.80;;;;;;;;;;6175743;23;20028;-64
2022/07/05 15:01:38;;;;;;;4.15;0.88;;;;;;;;;;6173790;23;20029;-63
2022/07/05 15:04:05;;;;;;;4.25;0.80;;;;;;;;;;6177972;23;20024;-64
2022/07/05 15:06:33;;;;;;;1.13;0.60;;;;;;;;;;6173981;23;20017;-63
2022/07/05 15:09:00;;;;;;;2.00;0.73;;;;;;;;;;6145193;23;20030;-65
2022/07/05 15:11:29;;;;;;;3.28;0.90;;;;;;;;;;6144754;23;20044;-63
2022/07/05 15:13:55;;;;;;;2.10;0.82;;;;;;;;;;6148181;23;20029;-65
2022/07/05 15:16:22;;;;;;;2.67;1.48;;;;;;;;;;6120638;23;20017;-65
2022/07/05 15:18:49;;;;;;;5.90;1.30;;;;;;;;;;6123553;23;20021;-65
2022/07/05 15:21:15;;;;;;;5.53;1.70;;;;;;;;;;6121287;23;20021;-65
2022/07/05 15:23:43;;;;;;;4.07;1.60;;;;;;;;;;6118932;23;20026;-65
2022/07/05 15:26:10;;;;;;;3.38;1.42;;;;;;;;;;6145933;23;20027;-65
2022/07/05 15:28:36;;;;;;;4.05;1.50;;;;;;;;;;6145893;23;20022;-64
2022/07/05 15:31:03;;;;;;;4.95;1.10;;;;;;;;;;6122717;23;20033;-64
2022/07/05 15:33:29;;;;;;;2.63;1.20;;;;;;;;;;6143879;23;20080;-64
2022/07/05 15:35:57;;;;;;;3.20;1.38;;;;;;;;;;6122323;23;20036;-64
2022/07/05 15:38:23;;;;;;;1.13;0.90;;;;;;;;;;6118808;23;20025;-64
2022/07/05 15:40:54;;;;;;;4.10;1.00;;;;;;;;;;6121846;23;20026;-63
2022/07/05 15:43:24;;;;;;;2.40;0.80;;;;;;;;;;6119189;23;20033;-64
2022/07/05 15:45:51;;;;;;;1.40;0.80;;;;;;;;;;6146532;23;20021;-64
2022/07/05 15:48:18;;;;;;;1.33;0.85;;;;;;;;;;6142278;23;20029;-63
2022/07/05 15:50:45;;;;;;;2.50;1.00;;;;;;;;;;6122183;23;20036;-65
2022/07/05 15:53:11;;;;;;;3.90;1.10;;;;;;;;;;6119683;23;20080;-64
2022/07/05 15:55:38;;;;;;;2.13;0.80;;;;;;;;;;6122327;23;20021;-63
2022/07/05 15:58:06;;;;;;;2.63;0.82;;;;;;;;;;6119069;23;20021;-64
2022/07/05 16:00:32;;;;;;;4.18;1.17;;;;;;;;;;6122024;23;20021;-63
2022/07/05 16:02:59;;;;;;;4.85;0.93;;;;;;;;;;6165624;23;20028;-64
2022/07/05 16:05:26;;;;;;;1.50;0.68;;;;;;;;;;6178400;23;20027;-64
2022/07/05 16:07:52;;;;;;;2.28;0.80;;;;;;;;;;6181338;23;20016;-62
2022/07/05 16:10:20;;;;;;;2.03;0.60;;;;;;;;;;6178329;23;20024;-65